createdAt,value
2023-02-17T00:01:31.387Z,5.07
2023-02-17T00:04:00.828Z,5.22
2023-02-17T00:06:31.846Z,4.90
2023-02-17T00:09:01.863Z,4.85
2023-02-17T00:11:30.461Z,4.90
2023-02-17T00:14:00.332Z,4.90
2023-02-17T00:16:30.972Z,4.55
2023-02-17T00:19:01.265Z,4.82
2023-02-17T00:21:31.604Z,4.30
2023-02-17T00:24:00.594Z,4.90
2023-02-17T00:26:28.993Z,4.65
2023-02-17T00:28:58.980Z,5.10
2023-02-17T00:31:27.275Z,4.75
2023-02-17T00:33:57.796Z,4.30
2023-02-17T00:36:27.516Z,4.53
2023-02-17T00:38:57.047Z,4.75
2023-02-17T00:41:26.492Z,4.75
2023-02-17T00:43:54.802Z,4.68
2023-02-17T00:46:23.805Z,4.72
2023-02-17T00:48:52.194Z,5.10
2023-02-17T00:51:21.958Z,4.70
2023-02-17T00:53:52.634Z,4.50
2023-02-17T00:56:20.917Z,4.75
2023-02-17T00:58:49.209Z,4.65
2023-02-17T01:01:17.584Z,4.25
2023-02-17T01:03:45.885Z,4.70
2023-02-17T01:06:23.568Z,4.57
2023-02-17T01:08:51.829Z,4.30
2023-02-17T01:11:20.347Z,4.53
2023-02-17T01:13:48.648Z,4.22
2023-02-17T01:16:19.015Z,4.30
2023-02-17T01:18:47.517Z,4.10
2023-02-17T01:21:19.222Z,4.18
2023-02-17T01:23:50.408Z,4.05
2023-02-17T01:26:20.294Z,4.45
2023-02-17T01:28:49.746Z,4.07
2023-02-17T01:31:18.361Z,4.22
2023-02-17T01:33:46.715Z,4.43
2023-02-17T01:36:16.797Z,4.10
2023-02-17T01:38:46.473Z,4.28
2023-02-17T01:41:18.146Z,4.38
2023-02-17T01:44:06.011Z,3.97
2023-02-17T01:46:34.703Z,4.15
2023-02-17T01:49:05.087Z,4.05
2023-02-17T01:51:37.062Z,4.67
2023-02-17T01:54:09.317Z,3.85
2023-02-17T01:56:43.131Z,4.07
2023-02-17T01:59:18.549Z,4.47
2023-02-17T02:01:48.497Z,4.05
2023-02-17T02:04:20.335Z,3.85
2023-02-17T02:06:49.000Z,4.15
2023-02-17T02:09:21.461Z,4.32
2023-02-17T02:11:52.333Z,4.13
2023-02-17T02:14:23.599Z,3.75
2023-02-17T02:17:00.727Z,4.30
2023-02-17T02:20:01.916Z,4.20
2023-02-17T02:22:54.256Z,3.40
2023-02-17T02:25:47.722Z,3.70
2023-02-17T02:28:29.480Z,3.50
2023-02-17T02:31:07.394Z,3.72
2023-02-17T02:33:45.013Z,3.45
2023-02-17T02:36:17.879Z,3.83
2023-02-17T02:38:53.041Z,3.80
2023-02-17T02:41:25.794Z,3.45
2023-02-17T02:43:54.354Z,3.65
2023-02-17T02:46:22.678Z,4.40
2023-02-17T02:48:53.415Z,3.90
2023-02-17T02:51:41.745Z,3.65
2023-02-17T02:54:22.437Z,3.90
2023-02-17T02:57:10.063Z,3.17
2023-02-17T02:59:48.622Z,3.53
2023-02-17T03:02:27.322Z,3.75
2023-02-17T03:05:04.422Z,3.90
2023-02-17T03:07:37.160Z,3.92
2023-02-17T03:10:06.787Z,3.75
2023-02-17T03:12:37.015Z,3.30
2023-02-17T03:15:13.864Z,3.65
2023-02-17T03:17:42.154Z,3.70
2023-02-17T03:20:13.418Z,3.60
2023-02-17T03:22:45.721Z,4.05
2023-02-17T03:25:14.294Z,3.35
2023-02-17T03:27:42.820Z,4.00
2023-02-17T03:30:12.246Z,3.17
2023-02-17T03:32:40.401Z,3.50
2023-02-17T03:35:09.459Z,3.30
2023-02-17T03:37:39.286Z,3.55
2023-02-17T03:40:09.099Z,3.40
2023-02-17T03:42:37.607Z,3.70
2023-02-17T03:45:06.413Z,3.55
2023-02-17T03:47:34.658Z,3.55
2023-02-17T03:50:02.916Z,3.58
2023-02-17T03:52:31.135Z,3.30
2023-02-17T03:55:00.677Z,3.63
2023-02-17T03:57:28.972Z,3.67
2023-02-17T03:59:57.205Z,3.38
2023-02-17T04:02:25.526Z,3.28
2023-02-17T04:04:53.638Z,3.33
2023-02-17T04:07:22.240Z,3.67
2023-02-17T04:09:50.639Z,3.03
2023-02-17T04:12:20.206Z,3.15
2023-02-17T04:14:48.362Z,3.38
2023-02-17T04:17:16.599Z,3.28
2023-02-17T04:19:44.849Z,2.72
2023-02-17T04:22:13.091Z,3.25
2023-02-17T04:24:41.507Z,3.13
2023-02-17T04:27:10.050Z,3.70
2023-02-17T04:29:39.684Z,3.70
2023-02-17T04:32:07.902Z,2.90
2023-02-17T04:34:36.158Z,3.00
2023-02-17T04:37:04.352Z,3.10
2023-02-17T04:39:32.555Z,3.00
2023-02-17T04:42:00.885Z,3.30
2023-02-17T04:44:29.205Z,3.22
2023-02-17T04:46:58.795Z,3.10
2023-02-17T04:49:27.079Z,3.00
2023-02-17T04:51:55.258Z,3.08
2023-02-17T04:54:23.529Z,3.47
2023-02-17T04:56:51.729Z,3.17
2023-02-17T04:59:19.887Z,2.95
2023-02-17T05:01:48.142Z,3.10
2023-02-17T05:04:17.865Z,3.03
2023-02-17T05:06:46.092Z,3.05
2023-02-17T05:09:14.246Z,3.28
2023-02-17T05:11:42.455Z,3.05
2023-02-17T05:14:10.675Z,3.35
2023-02-17T05:16:39.005Z,2.45
2023-02-17T05:19:07.431Z,3.15
2023-02-17T05:21:37.144Z,3.20
2023-02-17T05:24:05.936Z,3.17
2023-02-17T05:26:34.145Z,3.10
2023-02-17T05:29:02.357Z,3.22
2023-02-17T05:31:30.671Z,2.90
2023-02-17T05:33:58.889Z,2.78
2023-02-17T05:36:27.114Z,3.15
2023-02-17T05:38:56.755Z,3.08
2023-02-17T05:41:25.037Z,3.00
2023-02-17T05:43:53.333Z,2.95
2023-02-17T05:46:22.993Z,3.00
2023-02-17T05:48:51.298Z,2.80
2023-02-17T05:51:19.504Z,3.00
2023-02-17T05:53:47.617Z,3.05
2023-02-17T05:56:17.205Z,2.67
2023-02-17T05:58:45.404Z,2.38
2023-02-17T06:01:14.179Z,2.80
2023-02-17T06:03:42.520Z,2.45
2023-02-17T06:06:10.873Z,2.88
2023-02-17T06:08:39.694Z,2.53
2023-02-17T06:11:08.146Z,2.60
2023-02-17T06:13:37.867Z,2.75
2023-02-17T06:16:06.951Z,3.10
2023-02-17T06:18:35.387Z,2.97
2023-02-17T06:21:03.562Z,2.60
2023-02-17T06:23:31.806Z,2.60
2023-02-17T06:26:00.042Z,2.92
2023-02-17T06:28:28.236Z,2.80
2023-02-17T06:30:57.863Z,2.72
2023-02-17T06:33:25.985Z,2.40
2023-02-17T06:35:54.329Z,2.33
2023-02-17T06:38:22.550Z,2.47
2023-02-17T06:40:50.756Z,2.60
2023-02-17T06:43:19.048Z,2.80
2023-02-17T06:45:47.330Z,2.63
2023-02-17T06:48:17.132Z,2.35
2023-02-17T06:50:45.262Z,2.40
2023-02-17T06:53:13.532Z,3.03
2023-02-17T06:55:41.872Z,2.80
2023-02-17T06:58:09.992Z,2.90
2023-02-17T07:00:38.235Z,2.60
2023-02-17T07:03:06.706Z,2.80
2023-02-17T07:05:38.696Z,2.60
2023-02-17T07:08:07.278Z,2.40
2023-02-17T07:10:35.682Z,2.67
2023-02-17T07:13:04.064Z,2.40
2023-02-17T07:15:32.337Z,2.33
2023-02-17T07:18:00.450Z,2.50
2023-02-17T07:20:28.696Z,2.40
2023-02-17T07:22:58.270Z,2.97
2023-02-17T07:25:26.488Z,2.75
2023-02-17T07:27:54.670Z,2.63
2023-02-17T07:30:23.226Z,2.65
2023-02-17T07:32:51.458Z,2.67
2023-02-17T07:35:19.846Z,2.53
2023-02-17T07:37:48.360Z,2.58
2023-02-17T07:40:18.006Z,2.78
2023-02-17T07:42:46.209Z,2.75
2023-02-17T07:45:14.503Z,2.70
2023-02-17T07:47:42.730Z,2.38
2023-02-17T07:50:11.388Z,2.60
2023-02-17T07:52:39.718Z,2.85
2023-02-17T07:55:08.090Z,2.80
2023-02-17T07:57:37.676Z,2.75
2023-02-17T08:00:09.304Z,3.20
2023-02-17T08:02:38.911Z,3.20
2023-02-17T08:05:07.460Z,3.13
2023-02-17T08:07:35.685Z,3.70
2023-02-17T08:10:21.811Z,3.72
2023-02-17T08:13:09.373Z,3.60
2023-02-17T08:15:37.707Z,3.75
2023-02-17T08:18:06.548Z,4.18
2023-02-17T08:20:35.509Z,3.92
2023-02-17T08:23:04.690Z,4.20
2023-02-17T08:25:34.807Z,4.95
2023-02-17T08:28:05.749Z,5.13
2023-02-17T08:30:36.685Z,4.43
2023-02-17T08:33:05.118Z,5.75
2023-02-17T08:35:33.682Z,5.07
2023-02-17T08:38:02.002Z,4.50
2023-02-17T08:40:30.697Z,5.10
2023-02-17T08:42:59.016Z,4.90
2023-02-17T08:45:28.719Z,5.13
2023-02-17T08:47:57.034Z,5.72
2023-02-17T08:50:25.648Z,5.50
2023-02-17T08:52:53.840Z,6.05
2023-02-17T08:55:23.614Z,5.78
2023-02-17T08:57:52.034Z,6.88
2023-02-17T09:00:20.926Z,5.97
2023-02-17T09:02:51.641Z,6.45
2023-02-17T09:05:20.052Z,6.20
2023-02-17T09:07:48.396Z,6.07
2023-02-17T09:10:16.942Z,6.40
2023-02-17T09:12:45.438Z,7.20
2023-02-17T09:15:13.973Z,6.95
2023-02-17T09:17:42.731Z,6.85
2023-02-17T09:20:24.466Z,6.85
2023-02-17T09:22:53.590Z,7.03
2023-02-17T09:25:21.996Z,7.07
2023-02-17T09:27:50.306Z,8.18
2023-02-17T09:30:18.642Z,7.57
2023-02-17T09:32:46.932Z,7.45
2023-02-17T09:35:17.428Z,7.28
2023-02-17T09:37:46.464Z,6.85
2023-02-17T09:40:20.059Z,6.95
2023-02-17T09:42:49.165Z,7.15
2023-02-17T09:45:22.038Z,6.85
2023-02-17T09:47:53.765Z,7.05
2023-02-17T09:50:27.218Z,6.80
2023-02-17T09:53:01.738Z,6.65
2023-02-17T09:55:34.464Z,6.82
2023-02-17T09:58:08.409Z,6.93
2023-02-17T10:00:41.017Z,6.80
2023-02-17T10:03:18.280Z,6.93
2023-02-17T10:05:55.402Z,6.75
2023-02-17T10:08:28.608Z,6.72
2023-02-17T10:11:03.470Z,7.35
2023-02-17T10:13:35.629Z,6.75
2023-02-17T10:16:08.576Z,7.18
2023-02-17T10:18:40.920Z,6.22
2023-02-17T10:21:15.709Z,6.63
2023-02-17T10:23:46.003Z,6.38
2023-02-17T10:26:23.909Z,6.57
2023-02-17T10:28:53.992Z,6.40
2023-02-17T10:31:32.988Z,6.70
2023-02-17T10:34:04.768Z,6.25
2023-02-17T10:36:43.156Z,6.57
2023-02-17T10:39:16.575Z,6.25
2023-02-17T10:41:49.428Z,5.97
2023-02-17T10:44:21.413Z,5.93
2023-02-17T10:46:51.146Z,6.38
2023-02-17T10:49:27.387Z,6.13
2023-02-17T10:52:00.587Z,6.85
2023-02-17T10:54:36.630Z,7.03
2023-02-17T10:57:09.304Z,6.30
2023-02-17T10:59:41.579Z,6.68
2023-02-17T11:02:20.824Z,5.90
2023-02-17T11:04:51.048Z,6.60
2023-02-17T11:07:28.171Z,6.80
2023-02-17T11:10:01.352Z,6.60
2023-02-17T11:12:34.262Z,6.32
2023-02-17T11:15:05.926Z,6.05
2023-02-17T11:17:38.151Z,6.90
2023-02-17T11:20:29.373Z,6.03
2023-02-17T11:23:10.576Z,6.13
2023-02-17T11:25:39.147Z,6.38
2023-02-17T11:28:12.314Z,5.97
2023-02-17T11:30:42.229Z,5.72
2023-02-17T11:33:14.269Z,5.90
2023-02-17T11:35:50.415Z,6.45
2023-02-17T11:38:22.610Z,6.10
2023-02-17T11:40:56.505Z,6.40
2023-02-17T11:43:24.902Z,6.22
2023-02-17T11:46:03.692Z,6.47
2023-02-17T11:49:24.970Z,6.53
2023-02-17T11:52:02.901Z,6.63
2023-02-17T11:54:40.524Z,5.70
2023-02-17T11:57:22.682Z,6.90
2023-02-17T12:00:05.718Z,7.05
2023-02-17T12:02:58.023Z,7.38
2023-02-17T12:05:29.041Z,8.73
2023-02-17T12:08:09.531Z,8.93
2023-02-17T12:10:53.182Z,9.17
2023-02-17T12:13:32.986Z,9.25
2023-02-17T12:16:19.110Z,10.52
2023-02-17T12:19:01.138Z,10.32
2023-02-17T12:21:45.476Z,10.70
2023-02-17T12:24:34.290Z,9.88
2023-02-17T12:27:15.394Z,11.40
2023-02-17T12:30:01.620Z,11.80
2023-02-17T12:32:44.955Z,12.73
2023-02-17T12:35:19.876Z,13.30
2023-02-17T12:37:53.121Z,13.73
2023-02-17T12:40:33.451Z,14.45
2023-02-17T12:43:08.748Z,17.95
2023-02-17T12:45:40.930Z,18.88
2023-02-17T12:48:17.156Z,17.25
2023-02-17T12:50:53.952Z,17.95
2023-02-17T12:53:40.097Z,19.20
2023-02-17T12:56:37.556Z,18.55
2023-02-17T12:59:16.272Z,18.98
2023-02-17T13:01:51.915Z,16.58
2023-02-17T13:04:21.486Z,18.33
2023-02-17T13:06:55.554Z,16.85
2023-02-17T13:09:32.868Z,18.75
2023-02-17T13:12:17.384Z,18.50
2023-02-17T13:14:48.775Z,16.58
2023-02-17T13:17:28.306Z,17.38
2023-02-17T13:20:24.206Z,18.73
2023-02-17T13:23:04.685Z,19.60
2023-02-17T13:25:37.485Z,19.08
2023-02-17T13:28:35.280Z,19.27
2023-02-17T13:31:18.044Z,19.95
2023-02-17T13:33:51.915Z,19.70
2023-02-17T13:36:23.759Z,20.08
2023-02-17T13:39:00.579Z,20.52
2023-02-17T13:41:30.979Z,18.40
2023-02-17T13:43:59.304Z,18.77
2023-02-17T13:46:29.192Z,17.75
2023-02-17T13:49:05.800Z,15.88
2023-02-17T13:51:36.037Z,14.63
2023-02-17T13:54:09.391Z,14.67
2023-02-17T13:56:37.704Z,14.23
2023-02-17T13:59:11.970Z,14.65
2023-02-17T14:01:44.025Z,13.38
2023-02-17T14:04:22.043Z,15.95
2023-02-17T14:06:51.151Z,15.05
2023-02-17T14:09:25.515Z,14.18
2023-02-17T14:11:55.249Z,12.63
2023-02-17T14:14:27.255Z,12.70
2023-02-17T14:17:02.965Z,12.15
2023-02-17T14:19:42.265Z,12.93
2023-02-17T14:22:26.427Z,12.23
2023-02-17T14:25:10.390Z,11.77
2023-02-17T14:27:45.621Z,10.82
2023-02-17T14:30:16.237Z,11.32
2023-02-17T14:32:45.884Z,10.85
2023-02-17T14:35:25.793Z,10.80
2023-02-17T14:37:54.006Z,11.25
2023-02-17T14:40:24.749Z,9.98
2023-02-17T14:42:53.108Z,10.70
2023-02-17T14:45:21.329Z,10.40
2023-02-17T14:47:51.062Z,10.75
2023-02-17T14:50:19.429Z,10.48
2023-02-17T14:52:52.468Z,10.98
2023-02-17T14:55:30.466Z,12.07
2023-02-17T14:57:58.786Z,11.93
2023-02-17T15:00:27.877Z,11.93
2023-02-17T15:02:57.591Z,11.10
2023-02-17T15:05:26.082Z,11.68
2023-02-17T15:07:54.469Z,11.40
2023-02-17T15:10:27.150Z,11.95
2023-02-17T15:12:56.099Z,11.90
2023-02-17T15:15:24.823Z,11.95
2023-02-17T15:17:53.235Z,10.65
2023-02-17T15:20:22.984Z,10.68
2023-02-17T15:22:52.967Z,12.48
2023-02-17T15:25:23.500Z,10.65
2023-02-17T15:27:52.130Z,11.50
2023-02-17T15:30:22.982Z,11.50
2023-02-17T15:32:51.322Z,11.05
2023-02-17T15:35:22.827Z,11.13
2023-02-17T15:37:51.777Z,10.75
2023-02-17T15:40:21.829Z,10.43
2023-02-17T15:42:54.888Z,10.57
2023-02-17T15:45:24.942Z,11.82
2023-02-17T15:47:59.032Z,11.00
2023-02-17T15:50:28.586Z,10.07
2023-02-17T15:52:56.983Z,10.07
2023-02-17T15:55:25.494Z,10.75
2023-02-17T15:57:57.134Z,11.00
2023-02-17T16:00:27.873Z,11.13
2023-02-17T16:02:56.669Z,11.32
2023-02-17T16:05:27.226Z,12.20
2023-02-17T16:07:56.954Z,12.95
2023-02-17T16:10:28.262Z,12.90
2023-02-17T16:12:59.230Z,12.80
2023-02-17T16:15:29.197Z,12.98
2023-02-17T16:17:58.618Z,14.05
2023-02-17T16:20:29.231Z,13.40
2023-02-17T16:22:58.837Z,12.80
2023-02-17T16:25:28.427Z,12.80
2023-02-17T16:27:57.174Z,12.93
2023-02-17T16:30:29.369Z,13.25
2023-02-17T16:32:57.882Z,13.63
2023-02-17T16:35:27.942Z,13.52
2023-02-17T16:37:59.588Z,13.77
2023-02-17T16:40:30.211Z,14.73
2023-02-17T16:42:58.828Z,13.18
2023-02-17T16:45:30.089Z,12.93
2023-02-17T16:48:00.622Z,12.88
2023-02-17T16:50:31.833Z,13.23
2023-02-17T16:53:04.331Z,13.25
2023-02-17T16:55:35.725Z,14.23
2023-02-17T16:58:04.587Z,14.07
2023-02-17T17:00:34.237Z,15.05
2023-02-17T17:03:02.486Z,13.68
2023-02-17T17:05:31.150Z,13.45
2023-02-17T17:07:59.382Z,13.48
2023-02-17T17:10:31.050Z,13.10
2023-02-17T17:12:59.753Z,14.13
2023-02-17T17:15:28.543Z,13.10
2023-02-17T17:17:59.294Z,13.95
2023-02-17T17:20:32.047Z,13.73
2023-02-17T17:23:00.938Z,13.98
2023-02-17T17:25:30.992Z,13.57
2023-02-17T17:27:59.395Z,13.35
2023-02-17T17:30:31.880Z,13.00
2023-02-17T17:33:00.258Z,13.85
2023-02-17T17:35:29.136Z,13.05
2023-02-17T17:37:58.750Z,13.65
2023-02-17T17:40:30.595Z,13.55
2023-02-17T17:43:00.593Z,13.15
2023-02-17T17:45:28.863Z,12.82
2023-02-17T17:47:57.120Z,14.00
2023-02-17T17:50:26.342Z,12.55
2023-02-17T17:52:54.542Z,13.65
2023-02-17T17:55:22.956Z,13.45
2023-02-17T17:57:53.978Z,12.07
2023-02-17T18:02:51.769Z,12.20
2023-02-17T18:05:20.064Z,12.98
2023-02-17T18:07:49.647Z,12.43
2023-02-17T18:10:18.224Z,12.57
2023-02-17T18:12:48.450Z,13.10
2023-02-17T18:15:18.217Z,12.33
2023-02-17T18:17:49.409Z,12.52
2023-02-17T18:20:18.123Z,12.27
2023-02-17T18:22:46.490Z,12.07
2023-02-17T18:25:14.699Z,12.90
2023-02-17T18:27:44.529Z,10.82
2023-02-17T18:30:20.143Z,11.95
2023-02-17T18:32:50.544Z,11.40
2023-02-17T18:35:19.786Z,11.53
2023-02-17T18:37:48.611Z,11.15
2023-02-17T18:53:05.437Z,10.93
2023-02-17T18:58:01.726Z,10.25
2023-02-17T19:00:30.244Z,11.38
2023-02-17T19:02:58.485Z,10.15
2023-02-17T19:05:29.243Z,10.43
2023-02-17T19:07:57.335Z,10.75
2023-02-17T19:10:26.894Z,10.50
2023-02-17T19:12:55.141Z,11.73
2023-02-17T19:15:23.334Z,10.15
2023-02-17T19:17:51.818Z,9.68
2023-02-17T19:20:20.095Z,10.38
2023-02-17T19:22:48.314Z,10.48
2023-02-17T19:25:16.572Z,10.82
2023-02-17T19:27:46.140Z,10.40
2023-02-17T19:30:14.845Z,10.18
2023-02-17T19:32:43.149Z,9.57
2023-02-17T19:35:11.915Z,9.77
2023-02-17T19:37:40.149Z,9.50
2023-02-17T19:40:09.444Z,9.50
2023-02-17T19:42:40.058Z,10.07
2023-02-17T19:45:10.233Z,10.00
2023-02-17T19:47:38.610Z,10.52
2023-02-17T19:50:10.956Z,9.52
2023-02-17T19:52:39.978Z,10.15
2023-02-17T19:55:10.029Z,9.98
2023-02-17T19:57:38.329Z,9.45
2023-02-17T20:00:08.024Z,9.40
2023-02-17T20:02:37.665Z,9.25
2023-02-17T20:05:07.022Z,9.30
2023-02-17T20:07:35.226Z,9.80
2023-02-17T20:10:04.948Z,9.75
2023-02-17T20:12:33.153Z,9.00
2023-02-17T20:15:01.380Z,9.18
2023-02-17T20:17:29.570Z,8.63
2023-02-17T20:19:59.628Z,8.80
2023-02-17T20:22:27.807Z,9.45
2023-02-17T20:24:56.107Z,8.68
2023-02-17T20:27:24.301Z,9.13
2023-02-17T20:29:52.593Z,8.52
2023-02-17T20:32:20.778Z,9.38
2023-02-17T20:34:50.048Z,8.85
2023-02-17T20:37:21.268Z,8.45
2023-02-17T20:39:49.914Z,9.27
2023-02-17T20:42:18.111Z,9.05
2023-02-17T20:44:48.835Z,8.80
2023-02-17T20:47:17.064Z,9.75
2023-02-17T20:49:45.200Z,9.25
2023-02-17T20:52:13.313Z,8.98
2023-02-17T20:54:43.785Z,8.93
2023-02-17T20:57:15.241Z,8.52
2023-02-17T20:59:43.600Z,8.82
2023-02-17T21:02:12.510Z,9.02
2023-02-17T21:04:40.628Z,8.50
2023-02-17T21:07:08.784Z,9.00
2023-02-17T21:09:37.070Z,8.82
2023-02-17T21:12:07.141Z,8.43
2023-02-17T21:14:35.391Z,7.97
2023-02-17T21:17:03.544Z,8.05
2023-02-17T21:19:32.889Z,8.75
2023-02-17T21:22:01.086Z,8.95
2023-02-17T21:24:29.328Z,8.32
2023-02-17T21:26:57.452Z,8.65
2023-02-17T21:29:27.007Z,8.35
2023-02-17T21:31:57.933Z,7.95
2023-02-17T21:36:54.091Z,8.20
2023-02-17T21:39:22.366Z,7.47
2023-02-17T21:41:51.216Z,8.00
2023-02-17T21:44:36.847Z,8.48
2023-02-17T21:47:06.549Z,8.93
2023-02-17T21:49:34.713Z,8.02
2023-02-17T21:52:02.851Z,7.63
2023-02-17T21:54:31.033Z,7.20
2023-02-17T21:56:59.174Z,7.63
2023-02-17T21:59:27.320Z,7.75
2023-02-17T22:01:55.684Z,8.15
2023-02-17T22:04:28.143Z,8.02
2023-02-17T22:06:56.318Z,7.20
2023-02-17T22:09:55.673Z,7.18
2023-02-17T22:12:23.871Z,8.27
2023-02-17T22:14:51.964Z,6.95
2023-02-17T22:17:20.147Z,8.60
2023-02-17T22:19:49.753Z,6.95
2023-02-17T22:22:18.099Z,6.65
2023-02-17T22:24:46.340Z,7.95
2023-02-17T22:27:14.631Z,7.38
2023-02-17T22:29:42.925Z,7.47
2023-02-17T22:32:11.723Z,7.18
2023-02-17T22:34:40.004Z,7.65
2023-02-17T22:37:10.494Z,6.85
2023-02-17T22:39:38.685Z,7.10
2023-02-17T22:42:07.590Z,7.25
2023-02-17T22:44:35.738Z,6.88
2023-02-17T22:47:03.943Z,7.32
2023-02-17T22:49:32.149Z,6.80
2023-02-17T22:52:00.325Z,6.95
2023-02-17T22:54:31.545Z,6.90
2023-02-17T22:56:59.798Z,6.90
2023-02-17T22:59:28.321Z,6.85
2023-02-17T23:01:59.679Z,7.35
2023-02-17T23:04:28.782Z,7.00
2023-02-17T23:06:57.052Z,6.82
2023-02-17T23:09:25.334Z,6.72
2023-02-17T23:11:55.101Z,6.47
2023-02-17T23:14:28.362Z,6.88
2023-02-17T23:16:59.442Z,6.80
2023-02-17T23:21:57.692Z,6.60
2023-02-17T23:24:26.947Z,6.45
2023-02-17T23:26:57.460Z,6.35
2023-02-17T23:29:25.728Z,6.57
2023-02-17T23:31:54.166Z,6.40
2023-02-17T23:34:22.496Z,6.85
2023-02-17T23:36:50.959Z,6.97
2023-02-17T23:39:19.158Z,6.53
2023-02-17T23:41:47.404Z,7.10
2023-02-17T23:44:17.347Z,6.70
2023-02-17T23:46:46.913Z,6.50
2023-02-17T23:49:16.596Z,6.55
2023-02-17T23:51:46.887Z,5.80
2023-02-17T23:54:15.805Z,6.13
2023-02-17T23:56:44.315Z,6.40
2023-02-17T23:59:12.758Z,6.07
